• Join FlightAware (Why Join?)
  • Login
  • US Flag 
10:41AM EST


 

Airport Tracker/Info


-or-


 

Live Flight TrackerFlight Track Log ✈ SWA2166 ✈ 06-Jul-2013 ✈ KBWI - KMCO

Flight Track Log - Related Links

Times and Time Zones

All times are in EDT time to prevent confusion due to time zone crossing. See the SWA2166 flight status page for this flight to view local times or setup timezone preferences in your user account.

Time Position Orientation Groundspeed Altitude Reporting Facility
EDT Latitude Longitude Course Direction KTS MPH feet Rate Location/Type
08:44AM 39.1667 -76.7500 171° South 198 228 2,400  Level Potomac TRACON
08:45AM 39.1167 -76.7333 165° South 250 288 4,600 2,400 Climbing Potomac TRACON
08:46AM 39.0500 -76.6667 142° Southeast 277 319 7,300 2,820 Climbing Potomac TRACON
08:47AM 39.0000 -76.6000 134° Southeast 293 337 10,000 2,100 Climbing Potomac TRACON
08:48AM 38.9333 -76.5333 142° Southeast 344 396 11,300 1,740 Climbing Potomac TRACON
08:50AM 38.4882 -76.7076 171° South  Level FlightAware Approximate
08:50AM 38.8114 -76.5881 199° South 342 394 14,500  Level Washington Center
08:51AM 38.7253 -76.6347 203° Southwest 342 394 17,200 1,980 Climbing Washington Center
08:52AM 38.6331 -76.6867 204° Southwest 348 400 18,600 1,560 Climbing Washington Center
08:53AM 38.5369 -76.7278 199° South 359 413 20,400 1,500 Climbing Washington Center
08:54AM 38.4308 -76.7128 174° South 369 425 21,600 1,620 Climbing Washington Center
08:55AM 38.3183 -76.6978 174° South 383 441 23,700 1,620 Climbing Washington Center
08:56AM 38.1975 -76.6775 172° South 395 455 24,900 1,320 Climbing Washington Center
08:57AM 38.0831 -76.6628 174° South 408 470 26,400 1,320 Climbing Washington Center
08:58AM 37.9683 -76.6481 174° South 408 470 27,600 960 Climbing Washington Center
08:59AM 37.8536 -76.6594 184° South 408 470 28,400 1,020 Climbing Washington Center
09:00AM 37.7367 -76.6736 185° South 420 483 29,700 1,200 Climbing Washington Center
09:01AM 37.6217 -76.6878 186° South 427 491 30,900 960 Climbing Washington Center
09:02AM 37.5047 -76.7019 185° South 427 491 31,700 540 Climbing Washington Center
09:03AM 37.3856 -76.7342 192° South 427 491 32,000 120 Climbing Washington Center
09:04AM 37.2831 -76.7742 197° South 427 491 32,000  Level Washington Center
09:05AM 37.1700 -76.8247 200° South 434 499 32,000 540 Level Washington Center
09:06AM 37.0589 -76.8722 199° South 439 505 33,100 840 Climbing Washington Center
09:07AM 36.9478 -76.9200 199° South 429 494 33,700 420 Climbing Washington Center
09:08AM 36.8347 -76.9647 198° South 429 494 34,000 120 Climbing Washington Center
09:09AM 36.7236 -77.0119 199° South 429 494 34,000  Level Washington Center
09:10AM 36.6103 -77.0592 198° South 429 494 34,000  Level Washington Center
09:11AM 36.5011 -77.1036 198° South 429 494 34,000  Level Washington Center
09:12AM 36.3900 -77.1506 199° South 424 488 34,000  Level Washington Center
09:13AM 36.2811 -77.1919 197° South 424 488 34,000  Level Washington Center
09:14AM 36.1633 -77.2436 200° South 429 494 34,000  Level Washington Center
09:15AM 36.0503 -77.2875 197° South 422 486 34,000  Level Washington Center
09:16AM 35.9389 -77.3314 198° South 422 486 34,000  Level Washington Center
09:17AM 35.8278 -77.3775 199° South 427 491 34,000  Level Washington Center
09:18AM 35.7389 -77.4500 214° Southwest 427 491 34,000  Level Washington Center
09:19AM 35.6436 -77.5397 217° Southwest 427 491 34,000  Level Washington Center
09:20AM 35.5483 -77.6292 217° Southwest 437 503 34,000  Level Washington Center
09:21AM 35.4528 -77.7186 217° Southwest 437 503 34,000  Level Washington Center
09:22AM 35.3572 -77.8103 218° Southwest 442 509 34,000  Level Washington Center
09:23AM 35.2594 -77.9017 217° Southwest 442 509 34,000  Level Washington Center
09:24AM 35.1619 -77.9878 216° Southwest 442 509 34,000  Level Washington Center
09:25AM 35.0661 -78.0789 218° Southwest 442 509 34,000  Level Washington Center
09:26AM 34.9703 -78.1697 218° Southwest 442 509 34,000  Level Washington Center
09:27AM 34.8703 -78.2603 217° Southwest 442 509 34,000  Level Washington Center
09:28AM 34.7678 -78.3656 220° Southwest 442 509 34,000  Level Washington Center
09:30AM 34.5786 -78.5303 216° Southwest 443 510 34,000  Level Jacksonville Center
09:31AM 34.4739 -78.6336 219° Southwest 443 510 34,000  Level Jacksonville Center
09:32AM 34.3767 -78.7189 216° Southwest 448 516 34,000  Level Jacksonville Center
09:33AM 34.2658 -78.7744 203° Southwest 442 509 34,000  Level Jacksonville Center
09:34AM 34.1508 -78.8303 202° Southwest 437 503 34,000  Level Jacksonville Center
09:35AM 34.0397 -78.8856 202° Southwest 443 510 34,000  Level Jacksonville Center
09:36AM 33.9269 -78.9406 202° Southwest 443 510 34,000  Level Jacksonville Center
09:37AM 33.8158 -78.9956 202° Southwest 443 510 34,000  Level Jacksonville Center
09:38AM 33.7028 -79.0481 201° Southwest 443 510 34,000  Level Jacksonville Center
09:39AM 33.5917 -79.1053 203° Southwest 443 510 34,000  Level Jacksonville Center
09:40AM 33.4950 -79.1492 201° Southwest 424 488 34,000  Level Jacksonville Center
09:41AM 33.3839 -79.2036 202° Southwest 424 488 34,000  Level Jacksonville Center
09:42AM 33.2750 -79.2578 203° Southwest 424 488 34,000  Level Jacksonville Center
09:43AM 33.1636 -79.3094 201° Southwest 424 488 34,000  Level Jacksonville Center
09:44AM 33.0544 -79.3633 202° Southwest 429 494 34,000  Level Jacksonville Center
09:45AM 32.9433 -79.4172 202° Southwest 429 494 34,000  Level Jacksonville Center
09:46AM 32.8364 -79.4708 203° Southwest 429 494 34,000  Level Jacksonville Center
09:47AM 32.7250 -79.5244 202° Southwest 429 494 34,000  Level Jacksonville Center
09:48AM 32.6158 -79.5778 202° Southwest 429 494 34,000  Level Jacksonville Center
09:49AM 32.5064 -79.6286 201° Southwest 429 494 34,000  Level Jacksonville Center
09:50AM 32.3972 -79.6842 203° Southwest 429 494 34,000  Level Jacksonville Center
09:51AM 32.2858 -79.7372 202° Southwest 429 494 34,000  Level Jacksonville Center
09:52AM 32.1786 -79.7878 202° Southwest 429 494 34,000  Level Jacksonville Center
09:53AM 32.0672 -79.8428 203° Southwest 429 494 34,000  Level Jacksonville Center
09:54AM 31.9597 -79.8931 202° Southwest 429 494 34,000  Level Jacksonville Center
09:55AM 31.8419 -79.9458 201° Southwest 429 494 34,000  Level Jacksonville Center
09:56AM 31.7347 -79.9981 203° Southwest 424 488 34,000  Level Jacksonville Center
09:57AM 31.6253 -80.0525 203° Southwest 424 488 34,000  Level Jacksonville Center
09:58AM 31.5136 -80.1047 202° Southwest 429 494 34,000  Level Jacksonville Center
09:59AM 31.4022 -80.1567 202° Southwest 429 494 34,000  Level Jacksonville Center
10:00AM 31.3072 -80.2033 203° Southwest 434 499 34,000  Level Jacksonville Center
10:01AM 31.1892 -80.2503 199° South 434 499 34,000  Level Jacksonville Center
10:02AM 31.0817 -80.3044 203° Southwest 434 499 34,000  Level Jacksonville Center
10:03AM 30.9700 -80.3558 202° Southwest 428 493 34,000  Level Jacksonville Center
10:04AM 30.8561 -80.4072 201° Southwest 434 499 34,000  Level Jacksonville Center
10:05AM 30.7422 -80.4611 202° Southwest 434 499 34,000  Level Jacksonville Center
10:06AM 30.6283 -80.5050 198° South 434 499 34,000  Level Jacksonville Center
10:07AM 30.5142 -80.5489 198° South 434 499 34,000  Level Jacksonville Center
10:08AM 30.3961 -80.5928 198° South 440 506 34,000  Level Jacksonville Center
10:09AM 30.2778 -80.6317 196° South 440 506 34,000  Level Jacksonville Center
10:10AM 30.1617 -80.6753 198° South 440 506 34,000 -60 Level Jacksonville Center
10:11AM 30.0350 -80.7236 198° South 440 506 33,900 -1,740 Descending Jacksonville Center
10:12AM 29.9169 -80.7669 198° South 440 506 30,600 -3,000 Descending Jacksonville Center
10:13AM 29.7964 -80.8103 197° South 440 506 28,000 -2,520 Descending Jacksonville Center
10:14AM 29.6844 -80.8533 198° South 440 506 25,600 -2,340 Descending Jacksonville Center
10:15AM 29.5806 -80.8914 198° South 421 484 23,400 -2,160 Descending Jacksonville Center
10:16AM 29.4769 -80.9292 198° South 405 466 21,300 -2,100 Descending Jacksonville Center
10:17AM 29.3814 -80.9622 197° South 382 440 19,200 -1,980 Descending Jacksonville Center
10:18AM 29.2881 -80.9950 197° South 369 425 17,400 -1,980 Descending Jacksonville Center
10:19AM 29.1986 -81.0253 196° South 352 405 15,300 -2,100 Descending Jacksonville Center
10:20AM 29.1094 -81.0578 198° South 341 392 13,300 -1,680 Descending Jacksonville Center
10:21AM 29.0222 -81.0878 197° South 341 392 12,000 -1,080 Descending Jacksonville Center
10:22AM 28.9406 -81.0822 177° South 305 351 11,200 -1,200 Descending Jacksonville Center
10:23AM 28.8633 -81.0694 172° South 299 344 9,600 -1,560 Descending Jacksonville Center
10:24AM 28.7881 -81.0636 176° South 287 330 8,100 -1,500 Descending Jacksonville Center
10:25AM 28.7536 -81.1400 243° Southwest 231 266 6,700 -1,200 Descending Jacksonville Center
10:26AM 28.7483 -81.2231 266° West 226 260 5,800 -1,140 Descending Jacksonville Center
10:27AM 28.7008 -81.2547 210° Southwest 211 243 4,500 -900 Descending Jacksonville Center
10:28AM 28.6467 -81.2697 194° South 194 223 4,000 -720 Descending Jacksonville Center
10:29AM 28.6011 -81.2822 194° South 189 217 3,100 -900 Descending Jacksonville Center
10:30AM 28.5333 -81.2833 181° South 171 197 1,800 -840 Descending Orlando TRACON
10:31AM 28.5000 -81.2833 180° South 134 154 1,100 -720 Descending Orlando TRACON
10:32AM 28.4500 -81.2833 180° South 141 162 400 -720 Descending Orlando TRACON
10:34AM 28.4167 -81.3000 190° South  Level FlightAware Approximate
10:41AM 28.4294 -81.3090 190° South  Level Estimated
10:42AM 28.4294 -81.3090 190° South  Level Estimated
10:43AM 28.4294 -81.3090 190° South  Level Estimated
10:44AM 28.4294 -81.3090 190° South  Level Estimated